Terminal Aerodrome Forecast
Issued by NWS

Home | Current Version | Previous Version | Graphics & Text | Print | Product List | Glossary On
Versions: 1 2 3 4 5 6 7 8 9 10 11 12 13 14
000
FTUS42 KMHX 161737
TAFPGV
TAF
KPGV 161737Z 1618/1718 VRB03KT P6SM FEW250
     FM170600 00000KT P6SM BKN150
     FM171500 02006KT 2SM -RASN SCT025 OVC040
     FM171700 02008KT 2SM -SN OVC030
      AMD LTD TO CLD VIS AND WIND=

USA.gov is the U.S. government's official web portal to all federal, state and local government web resources and services.